Terminal Aerodrome Forecast
Issued by NWS North Platte, NE

Home | Current Version | Previous Version | Text Only | Print | Product List | Glossary Off
Versions: 1 2 3 4 5 6 7 8 9 10 11 12 13 14 15 16 17 18 19 20 21 22 23 24 25 26 27 28

000
FTUS43 KLBF 032300
TAFVTN
TAF
KVTN 032320Z 0400/0424 04014G21KT P6SM SCT250
     FM041200 05010KT P6SM SCT050 BKN100
     FM041500 07012G18KT P6SM BKN050 OVC100
     FM041800 06011KT P6SM -SHRA SCT040 OVC050=

USA.gov is the U.S. government's official web portal to all federal, state and local government web resources and services.